createdAt,value
2023-01-31T00:00:28.580Z,99159.12
2023-01-31T00:02:56.058Z,99156.28
2023-01-31T00:05:23.233Z,99150.22
2023-01-31T00:07:50.433Z,99154.09
2023-01-31T00:10:17.864Z,99149.72
2023-01-31T00:12:45.011Z,99157.78
2023-01-31T00:15:13.512Z,99147.34
2023-01-31T00:17:40.921Z,99149.06
2023-01-31T00:20:08.642Z,99153.03
2023-01-31T00:22:36.200Z,99136.47
2023-01-31T00:25:04.119Z,99156.94
2023-01-31T00:27:31.295Z,99163.19
2023-01-31T00:29:58.502Z,99175.88
2023-01-31T00:32:26.895Z,99177.22
2023-01-31T00:34:54.406Z,99171.72
2023-01-31T00:37:21.915Z,99182.25
2023-01-31T00:39:49.441Z,99185.09
2023-01-31T00:42:17.209Z,99181.81
2023-01-31T00:44:44.418Z,99179.66
2023-01-31T00:47:11.856Z,99178.50
2023-01-31T00:49:38.991Z,99178.00
2023-01-31T00:52:06.494Z,99178.41
2023-01-31T00:54:34.258Z,99175.25
2023-01-31T00:57:01.571Z,99183.59
2023-01-31T00:59:29.034Z,99170.75
2023-01-31T01:01:56.538Z,99181.50
2023-01-31T01:04:23.770Z,99174.31
2023-01-31T01:06:51.904Z,99171.19
2023-01-31T01:09:19.328Z,99176.41
2023-01-31T01:11:47.951Z,99173.00
2023-01-31T01:14:15.400Z,99181.97
2023-01-31T01:16:43.163Z,99171.13
2023-01-31T01:19:15.369Z,99167.72
2023-01-31T01:21:44.352Z,99172.81
2023-01-31T01:24:13.425Z,99164.13
2023-01-31T01:26:40.681Z,99170.81
2023-01-31T01:29:08.293Z,99164.03
2023-01-31T01:31:35.937Z,99170.87
2023-01-31T01:34:05.355Z,99181.19
2023-01-31T01:36:34.677Z,99183.16
2023-01-31T01:39:02.190Z,99184.91
2023-01-31T01:41:29.982Z,99179.75
2023-01-31T01:43:58.216Z,99201.94
2023-01-31T01:46:27.225Z,99200.44
2023-01-31T01:48:56.505Z,99197.75
2023-01-31T01:51:23.985Z,99209.72
2023-01-31T01:53:53.032Z,99218.78
2023-01-31T01:56:22.053Z,99218.72
2023-01-31T01:59:24.267Z,99211.22
2023-01-31T02:01:51.480Z,99201.34
2023-01-31T02:04:20.562Z,99205.34
2023-01-31T02:06:47.740Z,99205.63
2023-01-31T02:09:17.677Z,99217.31
2023-01-31T02:11:45.110Z,99225.28
2023-01-31T02:14:12.744Z,99220.84
2023-01-31T02:16:39.999Z,99223.09
2023-01-31T02:19:09.612Z,99233.28
2023-01-31T02:21:56.308Z,99233.72
2023-01-31T02:24:38.687Z,99239.00
2023-01-31T02:27:21.216Z,99239.97
2023-01-31T02:30:06.918Z,99249.13
2023-01-31T02:32:53.065Z,99250.09
2023-01-31T02:35:26.204Z,99255.31
2023-01-31T02:37:57.809Z,99252.25
2023-01-31T02:40:25.390Z,99261.75
2023-01-31T02:43:02.772Z,99271.34
2023-01-31T02:45:36.705Z,99272.84
2023-01-31T02:48:24.003Z,99276.06
2023-01-31T02:50:58.134Z,99284.69
2023-01-31T02:53:29.841Z,99286.97
2023-01-31T02:56:17.259Z,99284.72
2023-01-31T02:58:50.851Z,99293.41
2023-01-31T03:01:21.824Z,99301.75
2023-01-31T03:03:50.807Z,99290.50
2023-01-31T03:06:23.161Z,99287.19
2023-01-31T03:08:51.895Z,99305.50
2023-01-31T03:11:19.422Z,99311.06
2023-01-31T03:13:51.268Z,99312.91
2023-01-31T03:16:39.524Z,99311.56
2023-01-31T03:19:13.952Z,99312.44
2023-01-31T03:21:44.639Z,99323.75
2023-01-31T03:24:11.901Z,99321.41
2023-01-31T03:26:39.082Z,99317.16
2023-01-31T03:29:07.381Z,99321.63
2023-01-31T03:31:36.986Z,99319.38
2023-01-31T03:34:05.346Z,99313.31
2023-01-31T03:36:38.948Z,99324.59
2023-01-31T03:39:11.018Z,99318.78
2023-01-31T03:41:38.794Z,99322.13
2023-01-31T03:44:10.486Z,99322.94
2023-01-31T03:46:39.711Z,99323.09
2023-01-31T03:49:08.976Z,99338.09
2023-01-31T03:51:37.145Z,99341.47
2023-01-31T03:54:09.039Z,99338.34
2023-01-31T03:56:43.721Z,99325.22
2023-01-31T03:59:13.077Z,99332.41
2023-01-31T04:01:41.736Z,99322.19
2023-01-31T04:04:10.909Z,99338.19
2023-01-31T04:06:38.206Z,99342.69
2023-01-31T04:09:06.243Z,99348.66
2023-01-31T04:11:36.909Z,99355.34
2023-01-31T04:14:04.095Z,99347.59
2023-01-31T04:16:31.307Z,99347.44
2023-01-31T04:18:58.766Z,99357.75
2023-01-31T04:21:25.975Z,99351.38
2023-01-31T04:23:53.172Z,99362.06
2023-01-31T04:26:20.637Z,99368.25
2023-01-31T04:28:47.827Z,99363.50
2023-01-31T04:31:15.138Z,99377.56
2023-01-31T04:33:42.663Z,99372.12
2023-01-31T04:36:10.146Z,99376.47
2023-01-31T04:38:37.475Z,99386.81
2023-01-31T04:41:04.923Z,99384.63
2023-01-31T04:43:32.066Z,99385.28
2023-01-31T04:45:59.287Z,99396.41
2023-01-31T04:48:28.921Z,99401.81
2023-01-31T04:50:56.224Z,99394.69
2023-01-31T04:53:23.403Z,99398.94
2023-01-31T04:55:53.817Z,99412.63
2023-01-31T04:58:21.204Z,99413.50
2023-01-31T05:00:48.464Z,99398.72
2023-01-31T05:03:15.921Z,99395.78
2023-01-31T05:05:43.112Z,99396.88
2023-01-31T05:08:10.265Z,99394.34
2023-01-31T05:10:37.859Z,99394.50
2023-01-31T05:13:05.115Z,99404.81
2023-01-31T05:15:32.895Z,99404.44
2023-01-31T05:18:03.410Z,99400.69
2023-01-31T05:20:31.500Z,99409.59
2023-01-31T05:22:58.664Z,99411.25
2023-01-31T05:25:26.127Z,99423.31
2023-01-31T05:27:53.443Z,99417.38
2023-01-31T05:30:20.822Z,99421.37
2023-01-31T05:32:49.802Z,99412.72
2023-01-31T05:35:17.346Z,99422.37
2023-01-31T05:37:44.849Z,99419.53
2023-01-31T05:40:13.364Z,99413.31
2023-01-31T05:42:40.594Z,99424.59
2023-01-31T05:45:08.067Z,99427.91
2023-01-31T05:47:35.568Z,99422.84
2023-01-31T05:50:03.200Z,99430.69
2023-01-31T05:52:30.966Z,99436.00
2023-01-31T05:54:58.520Z,99444.00
2023-01-31T05:57:25.699Z,99444.94
2023-01-31T05:59:52.917Z,99449.94
2023-01-31T06:02:20.484Z,99439.78
2023-01-31T06:04:48.007Z,99435.97
2023-01-31T06:07:15.414Z,99443.66
2023-01-31T06:09:42.667Z,99443.78
2023-01-31T06:12:14.385Z,99448.31
2023-01-31T06:14:41.613Z,99447.81
2023-01-31T06:17:09.644Z,99449.78
2023-01-31T06:19:37.245Z,99459.03
2023-01-31T06:22:07.513Z,99474.78
2023-01-31T06:24:34.783Z,99471.19
2023-01-31T06:27:02.196Z,99486.12
2023-01-31T06:29:29.412Z,99475.84
2023-01-31T06:31:56.631Z,99492.72
2023-01-31T06:34:24.040Z,99490.25
2023-01-31T06:36:51.387Z,99504.69
2023-01-31T06:39:18.566Z,99499.59
2023-01-31T06:41:46.055Z,99493.91
2023-01-31T06:44:13.232Z,99499.00
2023-01-31T06:46:40.452Z,99509.59
2023-01-31T06:49:07.873Z,99503.00
2023-01-31T06:51:35.098Z,99520.94
2023-01-31T06:54:02.469Z,99523.78
2023-01-31T06:56:30.428Z,99533.22
2023-01-31T06:58:57.676Z,99542.81
2023-01-31T07:01:26.303Z,99532.78
2023-01-31T07:03:54.360Z,99532.84
2023-01-31T07:06:22.997Z,99536.56
2023-01-31T07:08:50.284Z,99545.66
2023-01-31T07:11:17.688Z,99542.84
2023-01-31T07:13:47.846Z,99547.66
2023-01-31T07:16:16.949Z,99553.66
2023-01-31T07:18:44.534Z,99561.75
2023-01-31T07:21:11.722Z,99559.63
2023-01-31T07:23:38.969Z,99560.34
2023-01-31T07:26:06.450Z,99551.66
2023-01-31T07:28:33.626Z,99557.94
2023-01-31T07:31:05.372Z,99570.88
2023-01-31T07:33:33.468Z,99561.09
2023-01-31T07:36:04.699Z,99569.66
2023-01-31T07:38:32.601Z,99563.12
2023-01-31T07:41:03.696Z,99570.72
2023-01-31T07:43:32.004Z,99578.06
2023-01-31T07:45:59.590Z,99577.75
2023-01-31T07:48:27.253Z,99582.78
2023-01-31T07:50:58.762Z,99582.56
2023-01-31T07:53:27.858Z,99577.28
2023-01-31T07:55:55.155Z,99580.88
2023-01-31T07:58:22.414Z,99584.00
2023-01-31T08:01:08.310Z,99580.69
2023-01-31T08:03:36.748Z,99591.31
2023-01-31T08:06:06.069Z,99594.19
2023-01-31T08:08:33.320Z,99605.69
2023-01-31T08:11:00.916Z,99607.22
2023-01-31T08:13:28.144Z,99606.28
2023-01-31T08:15:55.359Z,99607.16
2023-01-31T08:18:22.995Z,99601.62
2023-01-31T08:20:50.173Z,99605.16
2023-01-31T08:23:17.446Z,99616.12
2023-01-31T08:25:44.955Z,99624.59
2023-01-31T08:28:12.222Z,99635.69
2023-01-31T08:30:40.949Z,99645.31
2023-01-31T08:33:08.990Z,99650.31
2023-01-31T08:35:36.393Z,99660.38
2023-01-31T08:38:15.956Z,99664.63
2023-01-31T08:40:43.935Z,99674.97
2023-01-31T08:43:11.196Z,99674.97
2023-01-31T08:45:38.416Z,99676.28
2023-01-31T08:48:05.972Z,99687.03
2023-01-31T08:50:33.388Z,99690.72
2023-01-31T08:53:04.470Z,99696.28
2023-01-31T08:55:32.539Z,99699.31
2023-01-31T08:58:00.573Z,99697.34
2023-01-31T09:00:28.928Z,99710.47
2023-01-31T09:02:57.513Z,99706.75
2023-01-31T09:05:25.594Z,99709.31
2023-01-31T09:07:52.979Z,99704.31
2023-01-31T09:10:21.029Z,99701.66
2023-01-31T09:12:48.318Z,99720.72
2023-01-31T09:15:42.793Z,99721.84
2023-01-31T09:18:10.349Z,99716.28
2023-01-31T09:20:37.704Z,99715.91
2023-01-31T09:23:04.886Z,99715.84
2023-01-31T09:25:44.830Z,99718.94
2023-01-31T09:28:13.993Z,99724.41
2023-01-31T09:30:41.474Z,99715.44
2023-01-31T09:33:08.664Z,99716.91
2023-01-31T09:35:35.827Z,99727.81
2023-01-31T09:38:03.277Z,99722.16
2023-01-31T09:40:31.943Z,99720.09
2023-01-31T09:43:01.893Z,99732.22
2023-01-31T09:45:33.348Z,99721.53
2023-01-31T09:48:01.068Z,99726.44
2023-01-31T09:50:41.331Z,99723.56
2023-01-31T09:53:21.635Z,99725.84
2023-01-31T09:55:48.757Z,99721.91
2023-01-31T09:58:18.902Z,99714.69
2023-01-31T10:00:47.175Z,99711.87
2023-01-31T10:03:33.540Z,99707.97
2023-01-31T10:06:07.423Z,99709.44
2023-01-31T10:08:44.118Z,99703.09
2023-01-31T10:11:13.308Z,99705.91
2023-01-31T10:13:47.863Z,99710.16
2023-01-31T10:16:14.981Z,99699.16
2023-01-31T10:18:43.387Z,99711.13
2023-01-31T10:21:11.434Z,99704.19
2023-01-31T10:23:46.255Z,99696.53
2023-01-31T10:26:15.212Z,99705.44
2023-01-31T10:28:49.884Z,99706.66
2023-01-31T10:31:29.294Z,99698.28
2023-01-31T10:34:02.753Z,99696.63
2023-01-31T10:36:48.982Z,99685.44
2023-01-31T10:39:30.238Z,99689.19
2023-01-31T10:42:17.232Z,99691.38
2023-01-31T10:44:54.580Z,99686.00
2023-01-31T10:47:24.662Z,99696.66
2023-01-31T10:49:51.921Z,99690.75
2023-01-31T10:52:38.185Z,99685.72
2023-01-31T10:55:27.299Z,99687.81
2023-01-31T10:57:54.792Z,99683.00
2023-01-31T11:00:23.491Z,99677.44
2023-01-31T11:02:50.884Z,99690.66
2023-01-31T11:05:19.992Z,99683.75
2023-01-31T11:07:47.586Z,99685.44
2023-01-31T11:10:25.440Z,99670.72
2023-01-31T11:12:54.346Z,99678.25
2023-01-31T11:15:23.622Z,99678.25
2023-01-31T11:17:50.805Z,99677.69
2023-01-31T11:20:22.887Z,99677.28
2023-01-31T11:22:50.302Z,99676.84
2023-01-31T11:25:22.179Z,99682.75
2023-01-31T11:27:49.453Z,99681.66
2023-01-31T11:30:28.276Z,99688.13
2023-01-31T11:32:56.081Z,99680.53
2023-01-31T11:35:27.642Z,99687.56
2023-01-31T11:37:59.120Z,99681.81
2023-01-31T11:40:36.578Z,99686.78
2023-01-31T11:43:04.839Z,99682.66
2023-01-31T11:45:36.787Z,99681.94
2023-01-31T11:48:08.495Z,99679.56
2023-01-31T11:50:37.565Z,99671.75
2023-01-31T11:53:14.106Z,99672.25
2023-01-31T11:55:41.568Z,99671.78
2023-01-31T11:58:28.976Z,99666.13
2023-01-31T12:00:59.512Z,99671.06
2023-01-31T12:03:27.233Z,99672.06
2023-01-31T12:06:07.341Z,99661.47
2023-01-31T12:08:36.231Z,99678.38
2023-01-31T12:11:04.939Z,99666.09
2023-01-31T12:13:32.198Z,99665.28
2023-01-31T12:16:00.483Z,99671.84
2023-01-31T12:18:41.923Z,99677.16
2023-01-31T12:21:12.487Z,99672.87
2023-01-31T12:23:39.725Z,99675.03
2023-01-31T12:26:30.251Z,99672.81
2023-01-31T12:29:00.613Z,99677.25
2023-01-31T12:31:37.092Z,99676.97
2023-01-31T12:34:11.476Z,99678.38
2023-01-31T12:36:38.684Z,99674.84
2023-01-31T12:39:18.649Z,99688.63
2023-01-31T12:41:45.789Z,99670.72
2023-01-31T12:44:32.323Z,99673.09
2023-01-31T12:47:11.946Z,99686.16
2023-01-31T12:49:58.581Z,99689.63
2023-01-31T12:52:29.150Z,99690.28
2023-01-31T12:55:15.789Z,99703.47
2023-01-31T12:57:58.464Z,99699.88
2023-01-31T13:00:32.160Z,99712.63
2023-01-31T13:02:59.404Z,99712.53
2023-01-31T13:05:31.375Z,99722.12
2023-01-31T13:08:01.758Z,99713.84
2023-01-31T13:10:31.067Z,99721.63
2023-01-31T13:12:58.292Z,99712.94
2023-01-31T13:15:34.904Z,99716.56
2023-01-31T13:18:04.085Z,99723.06
2023-01-31T13:20:43.523Z,99714.47
2023-01-31T13:23:15.860Z,99718.00
2023-01-31T13:25:49.158Z,99710.44
2023-01-31T13:28:24.090Z,99713.28
2023-01-31T13:30:58.576Z,99730.66
2023-01-31T13:33:26.050Z,99728.50
2023-01-31T13:36:08.527Z,99730.56
2023-01-31T13:38:40.049Z,99738.69
2023-01-31T13:41:08.298Z,99726.94
2023-01-31T13:43:35.787Z,99731.03
2023-01-31T13:46:04.128Z,99729.81
2023-01-31T13:48:33.751Z,99727.81
2023-01-31T13:51:04.296Z,99732.94
2023-01-31T13:53:36.096Z,99748.25
2023-01-31T13:56:03.634Z,99740.63
2023-01-31T13:58:35.334Z,99745.84
2023-01-31T14:01:07.373Z,99740.88
2023-01-31T14:03:53.613Z,99745.19
2023-01-31T14:06:20.750Z,99742.28
2023-01-31T14:08:49.963Z,99742.81
2023-01-31T14:11:17.110Z,99753.91
2023-01-31T14:13:47.916Z,99748.69
2023-01-31T14:16:30.646Z,99747.47
2023-01-31T14:18:57.862Z,99754.91
2023-01-31T14:21:31.304Z,99760.13
2023-01-31T14:23:59.604Z,99760.97
2023-01-31T14:26:33.014Z,99760.31
2023-01-31T14:29:00.230Z,99763.63
2023-01-31T14:31:27.855Z,99757.31
2023-01-31T14:33:57.452Z,99762.91
2023-01-31T14:36:36.982Z,99747.19
2023-01-31T14:39:04.432Z,99757.19
2023-01-31T14:41:34.356Z,99765.03
2023-01-31T14:44:12.372Z,99753.62
2023-01-31T14:46:50.408Z,99752.72
2023-01-31T14:49:36.401Z,99754.41
2023-01-31T14:52:06.621Z,99753.19
2023-01-31T14:54:36.932Z,99748.87
2023-01-31T14:57:04.309Z,99751.56
2023-01-31T14:59:35.503Z,99745.81
2023-01-31T15:02:41.461Z,99747.38
2023-01-31T15:05:11.790Z,99743.38
2023-01-31T15:08:01.727Z,99751.31
2023-01-31T15:10:48.066Z,99760.00
2023-01-31T15:13:34.184Z,99749.50
2023-01-31T15:16:05.558Z,99757.69
2023-01-31T15:18:33.110Z,99756.84
2023-01-31T15:21:01.448Z,99754.06
2023-01-31T15:23:29.262Z,99764.06
2023-01-31T15:25:57.158Z,99769.19
2023-01-31T15:28:28.568Z,99761.75
2023-01-31T15:30:57.146Z,99769.78
2023-01-31T15:33:57.165Z,99768.62
2023-01-31T15:36:27.356Z,99775.91
2023-01-31T15:38:55.591Z,99771.59
2023-01-31T15:41:25.065Z,99777.50
2023-01-31T15:43:53.700Z,99765.78
2023-01-31T15:46:21.804Z,99760.84
2023-01-31T15:48:49.193Z,99752.38
2023-01-31T15:51:18.479Z,99755.81
2023-01-31T15:53:45.958Z,99747.47
2023-01-31T15:56:17.641Z,99751.13
2023-01-31T15:58:49.535Z,99753.41
2023-01-31T16:01:17.677Z,99750.25
2023-01-31T16:03:58.277Z,99755.03
2023-01-31T16:06:37.854Z,99755.28
2023-01-31T16:09:05.794Z,99758.00
2023-01-31T16:11:34.211Z,99770.25
2023-01-31T16:14:05.447Z,99770.88
2023-01-31T16:16:36.110Z,99764.84
2023-01-31T16:19:03.526Z,99758.63
2023-01-31T16:21:32.325Z,99753.56
2023-01-31T16:24:11.839Z,99762.13
2023-01-31T16:26:39.968Z,99758.00
2023-01-31T16:29:08.478Z,99760.09
2023-01-31T16:31:45.977Z,99759.63
2023-01-31T16:34:19.654Z,99763.53
2023-01-31T16:36:49.965Z,99761.56
2023-01-31T16:39:36.472Z,99765.69
2023-01-31T16:42:04.483Z,99761.56
2023-01-31T16:44:35.911Z,99752.06
2023-01-31T16:47:04.457Z,99764.25
2023-01-31T16:49:34.094Z,99760.53
2023-01-31T16:52:01.226Z,99766.94
2023-01-31T16:54:31.001Z,99772.75
2023-01-31T16:57:01.672Z,99774.53
2023-01-31T16:59:39.223Z,99763.59
2023-01-31T17:02:12.868Z,99757.87
2023-01-31T17:04:40.807Z,99764.25
2023-01-31T17:07:13.138Z,99762.75
2023-01-31T17:09:40.493Z,99757.84
2023-01-31T17:12:12.144Z,99753.16
2023-01-31T17:14:39.313Z,99755.69
2023-01-31T17:17:12.669Z,99757.72
2023-01-31T17:19:43.616Z,99759.72
2023-01-31T17:22:10.934Z,99759.84
2023-01-31T17:24:38.239Z,99759.34
2023-01-31T17:27:06.013Z,99757.72
2023-01-31T17:29:33.245Z,99760.56
2023-01-31T17:32:01.446Z,99766.28
2023-01-31T17:34:30.211Z,99770.13
2023-01-31T17:36:57.565Z,99776.09
2023-01-31T17:39:27.103Z,99756.47
2023-01-31T17:41:54.852Z,99757.84
2023-01-31T17:44:22.472Z,99768.62
2023-01-31T17:46:49.993Z,99777.19
2023-01-31T17:49:17.687Z,99767.25
2023-01-31T17:51:45.524Z,99761.38
2023-01-31T17:54:12.869Z,99768.62
2023-01-31T17:56:40.712Z,99757.72
2023-01-31T17:59:12.319Z,99756.34
2023-01-31T18:01:42.749Z,99757.37
2023-01-31T18:04:10.492Z,99750.03
2023-01-31T18:06:37.834Z,99745.00
2023-01-31T18:09:06.165Z,99735.09
2023-01-31T18:11:33.834Z,99737.72
2023-01-31T18:14:03.356Z,99738.94
2023-01-31T18:16:30.906Z,99737.09
2023-01-31T18:18:58.619Z,99741.81
2023-01-31T18:21:26.327Z,99741.50
2023-01-31T18:23:54.479Z,99733.84
2023-01-31T18:26:22.671Z,99732.88
2023-01-31T18:28:49.905Z,99738.22
2023-01-31T18:31:17.665Z,99740.44
2023-01-31T18:33:46.409Z,99732.06
2023-01-31T18:36:15.042Z,99734.06
2023-01-31T18:38:57.808Z,99731.91
2023-01-31T18:41:25.477Z,99734.91
2023-01-31T18:43:52.877Z,99745.59
2023-01-31T18:46:23.830Z,99740.94
2023-01-31T18:48:51.531Z,99744.00
2023-01-31T18:51:19.136Z,99739.78
2023-01-31T18:53:46.883Z,99750.16
2023-01-31T18:56:17.046Z,99742.41
2023-01-31T18:58:44.776Z,99735.03
2023-01-31T19:01:16.643Z,99732.44
2023-01-31T19:03:44.962Z,99727.25
2023-01-31T19:06:16.724Z,99729.84
2023-01-31T19:08:47.009Z,99737.34
2023-01-31T19:11:14.959Z,99734.25
2023-01-31T19:13:42.957Z,99744.00
2023-01-31T19:16:15.201Z,99734.81
2023-01-31T19:18:42.649Z,99737.00
2023-01-31T19:21:13.977Z,99740.38
2023-01-31T19:23:41.659Z,99742.72
2023-01-31T19:26:09.831Z,99743.34
2023-01-31T19:28:37.891Z,99748.69
2023-01-31T19:31:05.922Z,99752.44
2023-01-31T19:33:34.452Z,99744.41
2023-01-31T19:36:10.766Z,99749.81
2023-01-31T19:38:38.465Z,99738.59
2023-01-31T19:41:06.032Z,99738.09
2023-01-31T19:43:34.528Z,99745.78
2023-01-31T19:46:02.159Z,99735.56
2023-01-31T19:48:29.560Z,99732.22
2023-01-31T19:50:57.178Z,99733.63
2023-01-31T19:53:25.129Z,99735.53
2023-01-31T19:55:54.090Z,99744.03
2023-01-31T19:58:22.187Z,99749.97
2023-01-31T20:00:52.107Z,99737.56
2023-01-31T20:03:19.662Z,99741.84
2023-01-31T20:05:47.516Z,99745.00
2023-01-31T20:08:14.761Z,99742.31
2023-01-31T20:10:42.509Z,99746.59
2023-01-31T20:13:09.894Z,99740.34
2023-01-31T20:15:37.308Z,99739.56
2023-01-31T20:18:05.486Z,99738.75
2023-01-31T20:20:32.921Z,99739.56
2023-01-31T20:23:00.337Z,99741.41
2023-01-31T20:25:28.015Z,99733.00
2023-01-31T20:27:55.440Z,99733.16
2023-01-31T20:30:23.506Z,99734.03
2023-01-31T20:32:51.576Z,99736.28
2023-01-31T20:35:18.848Z,99729.34
2023-01-31T20:37:47.316Z,99730.34
2023-01-31T20:40:15.059Z,99727.84
2023-01-31T20:42:42.412Z,99728.16
2023-01-31T20:45:11.329Z,99727.59
2023-01-31T20:47:39.193Z,99731.38
2023-01-31T20:50:06.665Z,99732.91
2023-01-31T20:52:34.437Z,99727.63
2023-01-31T20:55:02.018Z,99715.44
2023-01-31T20:57:29.379Z,99714.59
2023-01-31T20:59:56.669Z,99718.41
2023-01-31T21:02:24.281Z,99713.94
2023-01-31T21:04:54.815Z,99721.59
2023-01-31T21:07:22.087Z,99726.19
2023-01-31T21:09:49.888Z,99717.66
2023-01-31T21:12:17.180Z,99715.00
2023-01-31T21:14:44.541Z,99717.22
2023-01-31T21:17:14.060Z,99711.37
2023-01-31T21:19:41.357Z,99703.75
2023-01-31T21:22:08.685Z,99704.06
2023-01-31T21:24:36.845Z,99703.25
2023-01-31T21:27:04.233Z,99695.75
2023-01-31T21:29:32.719Z,99695.50
2023-01-31T21:32:00.470Z,99699.69
2023-01-31T21:34:27.922Z,99702.50
2023-01-31T21:36:55.126Z,99699.31
2023-01-31T21:39:22.624Z,99694.38
2023-01-31T21:42:08.266Z,99693.44
2023-01-31T21:44:35.806Z,99696.50
2023-01-31T21:47:03.075Z,99694.03
2023-01-31T21:49:30.218Z,99692.16
2023-01-31T21:51:57.694Z,99694.75
2023-01-31T21:54:24.886Z,99691.72
2023-01-31T21:56:52.062Z,99694.06
2023-01-31T21:59:19.615Z,99703.06
2023-01-31T22:01:46.914Z,99703.59
2023-01-31T22:04:20.519Z,99693.72
2023-01-31T22:06:50.608Z,99699.03
2023-01-31T22:09:18.433Z,99700.97
2023-01-31T22:11:47.524Z,99690.94
2023-01-31T22:14:15.615Z,99694.28
2023-01-31T22:16:43.345Z,99695.38
2023-01-31T22:19:11.534Z,99697.28
2023-01-31T22:21:38.778Z,99693.06
2023-01-31T22:24:06.821Z,99699.72
2023-01-31T22:26:35.229Z,99674.72
2023-01-31T22:29:03.113Z,99690.19
2023-01-31T22:31:30.946Z,99683.97
2023-01-31T22:33:59.992Z,99686.28
2023-01-31T22:36:27.465Z,99690.13
2023-01-31T22:38:54.926Z,99680.41
2023-01-31T22:41:22.246Z,99677.94
2023-01-31T22:43:50.016Z,99676.62
2023-01-31T22:46:19.306Z,99670.22
2023-01-31T22:48:49.316Z,99660.81
2023-01-31T22:51:18.449Z,99661.41
2023-01-31T22:53:46.118Z,99656.81
2023-01-31T22:56:18.076Z,99645.06
2023-01-31T22:58:45.744Z,99644.94
2023-01-31T23:01:14.304Z,99655.06
2023-01-31T23:03:41.617Z,99641.47
2023-01-31T23:06:09.238Z,99638.00
2023-01-31T23:08:36.574Z,99639.28
2023-01-31T23:11:05.281Z,99632.44
2023-01-31T23:13:32.985Z,99618.16
2023-01-31T23:16:00.294Z,99625.19
2023-01-31T23:18:27.535Z,99623.16
2023-01-31T23:20:54.980Z,99627.09
2023-01-31T23:23:22.225Z,99617.47
2023-01-31T23:25:49.408Z,99616.41
2023-01-31T23:28:16.822Z,99611.41
2023-01-31T23:30:46.668Z,99608.72
2023-01-31T23:33:13.945Z,99600.66
2023-01-31T23:35:41.455Z,99602.94
2023-01-31T23:38:08.661Z,99603.34
2023-01-31T23:40:35.857Z,99599.50
2023-01-31T23:43:03.308Z,99599.00
2023-01-31T23:45:30.776Z,99596.19
2023-01-31T23:47:58.015Z,99586.53
2023-01-31T23:50:25.678Z,99580.47
2023-01-31T23:52:52.852Z,99577.19
2023-01-31T23:55:22.667Z,99578.53
2023-01-31T23:57:50.505Z,99573.81
